sensor_id;sensor_type;location;lat;lon;timestamp;P1;durP1;ratioP1;P2;durP2;ratioP2
4504;SDS011;2265;48.794;9.520;2024-02-23T00:01:09;2.40;;;1.00;;
4504;SDS011;2265;48.794;9.520;2024-02-23T00:03:37;1.20;;;1.00;;
4504;SDS011;2265;48.794;9.520;2024-02-23T00:06:04;1.17;;;1.00;;
4504;SDS011;2265;48.794;9.520;2024-02-23T00:08:32;2.27;;;1.00;;
4504;SDS011;2265;48.794;9.520;2024-02-23T00:11:00;1.20;;;1.00;;
4504;SDS011;2265;48.794;9.520;2024-02-23T00:13:27;1.33;;;1.00;;
4504;SDS011;2265;48.794;9.520;2024-02-23T00:15:54;1.10;;;1.00;;
4504;SDS011;2265;48.794;9.520;2024-02-23T00:18:23;1.60;;;1.10;;
4504;SDS011;2265;48.794;9.520;2024-02-23T00:20:50;1.20;;;1.00;;
4504;SDS011;2265;48.794;9.520;2024-02-23T00:23:17;1.80;;;1.00;;
4504;SDS011;2265;48.794;9.520;2024-02-23T00:25:47;1.20;;;1.00;;
4504;SDS011;2265;48.794;9.520;2024-02-23T00:28:14;1.20;;;1.10;;
4504;SDS011;2265;48.794;9.520;2024-02-23T00:30:41;1.20;;;1.00;;
4504;SDS011;2265;48.794;9.520;2024-02-23T00:33:09;1.80;;;1.20;;
4504;SDS011;2265;48.794;9.520;2024-02-23T00:35:36;1.10;;;1.00;;
4504;SDS011;2265;48.794;9.520;2024-02-23T00:38:04;1.20;;;1.10;;
4504;SDS011;2265;48.794;9.520;2024-02-23T00:40:32;1.10;;;0.90;;
4504;SDS011;2265;48.794;9.520;2024-02-23T00:43:02;1.10;;;1.00;;
4504;SDS011;2265;48.794;9.520;2024-02-23T00:45:32;1.20;;;1.00;;
4504;SDS011;2265;48.794;9.520;2024-02-23T00:47:59;4.80;;;1.00;;
4504;SDS011;2265;48.794;9.520;2024-02-23T00:50:26;1.10;;;1.10;;
4504;SDS011;2265;48.794;9.520;2024-02-23T00:52:54;1.80;;;1.10;;
4504;SDS011;2265;48.794;9.520;2024-02-23T00:55:21;1.30;;;1.00;;
4504;SDS011;2265;48.794;9.520;2024-02-23T00:57:50;1.30;;;1.10;;
4504;SDS011;2265;48.794;9.520;2024-02-23T01:00:19;1.20;;;1.00;;
4504;SDS011;2265;48.794;9.520;2024-02-23T01:02:46;2.60;;;1.20;;
4504;SDS011;2265;48.794;9.520;2024-02-23T01:05:13;1.80;;;1.10;;
4504;SDS011;2265;48.794;9.520;2024-02-23T01:07:40;1.10;;;0.90;;
4504;SDS011;2265;48.794;9.520;2024-02-23T01:10:07;1.30;;;1.07;;
4504;SDS011;2265;48.794;9.520;2024-02-23T01:12:35;1.23;;;1.03;;
4504;SDS011;2265;48.794;9.520;2024-02-23T01:15:03;1.10;;;1.00;;
4504;SDS011;2265;48.794;9.520;2024-02-23T01:17:32;1.30;;;1.00;;
4504;SDS011;2265;48.794;9.520;2024-02-23T01:19:59;1.40;;;1.00;;
4504;SDS011;2265;48.794;9.520;2024-02-23T01:22:26;1.20;;;1.00;;
4504;SDS011;2265;48.794;9.520;2024-02-23T01:24:53;1.20;;;1.00;;
4504;SDS011;2265;48.794;9.520;2024-02-23T01:27:20;2.47;;;1.10;;
4504;SDS011;2265;48.794;9.520;2024-02-23T01:29:47;2.27;;;1.00;;
4504;SDS011;2265;48.794;9.520;2024-02-23T01:32:14;1.40;;;1.00;;
4504;SDS011;2265;48.794;9.520;2024-02-23T01:34:43;1.30;;;1.03;;
4504;SDS011;2265;48.794;9.520;2024-02-23T01:37:10;1.40;;;1.00;;
4504;SDS011;2265;48.794;9.520;2024-02-23T01:39:37;4.07;;;1.20;;
4504;SDS011;2265;48.794;9.520;2024-02-23T01:42:04;1.10;;;1.00;;
4504;SDS011;2265;48.794;9.520;2024-02-23T01:44:31;1.10;;;1.00;;
4504;SDS011;2265;48.794;9.520;2024-02-23T01:46:58;1.50;;;1.10;;
4504;SDS011;2265;48.794;9.520;2024-02-23T01:49:26;2.57;;;1.10;;
4504;SDS011;2265;48.794;9.520;2024-02-23T01:51:58;1.20;;;1.00;;
4504;SDS011;2265;48.794;9.520;2024-02-23T01:54:26;1.70;;;1.10;;
4504;SDS011;2265;48.794;9.520;2024-02-23T01:56:54;1.50;;;1.10;;
4504;SDS011;2265;48.794;9.520;2024-02-23T01:59:27;1.20;;;1.10;;
4504;SDS011;2265;48.794;9.520;2024-02-23T02:01:55;1.10;;;1.00;;
4504;SDS011;2265;48.794;9.520;2024-02-23T02:04:22;1.10;;;1.00;;
4504;SDS011;2265;48.794;9.520;2024-02-23T02:06:49;1.20;;;1.00;;
4504;SDS011;2265;48.794;9.520;2024-02-23T02:09:18;1.30;;;1.10;;
4504;SDS011;2265;48.794;9.520;2024-02-23T02:11:45;1.20;;;1.10;;
4504;SDS011;2265;48.794;9.520;2024-02-23T02:14:13;1.40;;;1.00;;
4504;SDS011;2265;48.794;9.520;2024-02-23T02:16:41;1.40;;;1.00;;
4504;SDS011;2265;48.794;9.520;2024-02-23T02:19:09;1.17;;;1.00;;
4504;SDS011;2265;48.794;9.520;2024-02-23T02:21:36;1.50;;;1.20;;
4504;SDS011;2265;48.794;9.520;2024-02-23T02:24:04;3.40;;;1.23;;
4504;SDS011;2265;48.794;9.520;2024-02-23T02:26:33;1.50;;;1.07;;
4504;SDS011;2265;48.794;9.520;2024-02-23T02:29:01;1.10;;;0.90;;
4504;SDS011;2265;48.794;9.520;2024-02-23T02:31:29;3.57;;;1.30;;
4504;SDS011;2265;48.794;9.520;2024-02-23T02:34:02;1.17;;;1.10;;
4504;SDS011;2265;48.794;9.520;2024-02-23T02:36:29;3.17;;;1.20;;
4504;SDS011;2265;48.794;9.520;2024-02-23T02:38:59;1.30;;;1.13;;
4504;SDS011;2265;48.794;9.520;2024-02-23T02:41:27;3.80;;;1.10;;
4504;SDS011;2265;48.794;9.520;2024-02-23T02:43:58;1.40;;;1.00;;
4504;SDS011;2265;48.794;9.520;2024-02-23T02:46:25;1.30;;;1.10;;
4504;SDS011;2265;48.794;9.520;2024-02-23T02:48:52;1.93;;;1.10;;
4504;SDS011;2265;48.794;9.520;2024-02-23T02:51:19;1.60;;;1.10;;
4504;SDS011;2265;48.794;9.520;2024-02-23T02:53:46;1.93;;;1.00;;
4504;SDS011;2265;48.794;9.520;2024-02-23T02:56:13;1.20;;;1.07;;
4504;SDS011;2265;48.794;9.520;2024-02-23T02:58:40;1.20;;;1.00;;
4504;SDS011;2265;48.794;9.520;2024-02-23T03:01:09;2.57;;;1.33;;
4504;SDS011;2265;48.794;9.520;2024-02-23T03:03:36;4.80;;;1.70;;
4504;SDS011;2265;48.794;9.520;2024-02-23T03:06:03;1.20;;;1.00;;
4504;SDS011;2265;48.794;9.520;2024-02-23T03:08:30;1.20;;;1.10;;
4504;SDS011;2265;48.794;9.520;2024-02-23T03:10:58;1.20;;;1.17;;
4504;SDS011;2265;48.794;9.520;2024-02-23T03:13:25;1.40;;;1.10;;
4504;SDS011;2265;48.794;9.520;2024-02-23T03:15:54;1.43;;;1.10;;
4504;SDS011;2265;48.794;9.520;2024-02-23T03:18:22;3.30;;;1.10;;
4504;SDS011;2265;48.794;9.520;2024-02-23T03:20:49;1.47;;;1.10;;
4504;SDS011;2265;48.794;9.520;2024-02-23T03:23:18;1.13;;;1.03;;
4504;SDS011;2265;48.794;9.520;2024-02-23T03:25:45;2.90;;;1.43;;
4504;SDS011;2265;48.794;9.520;2024-02-23T03:28:12;5.53;;;1.20;;
4504;SDS011;2265;48.794;9.520;2024-02-23T03:30:39;2.80;;;1.27;;
4504;SDS011;2265;48.794;9.520;2024-02-23T03:33:06;2.03;;;1.30;;
4504;SDS011;2265;48.794;9.520;2024-02-23T03:35:34;1.70;;;1.10;;
4504;SDS011;2265;48.794;9.520;2024-02-23T03:38:01;1.17;;;1.03;;
4504;SDS011;2265;48.794;9.520;2024-02-23T03:40:29;1.30;;;1.20;;
4504;SDS011;2265;48.794;9.520;2024-02-23T03:42:56;3.33;;;1.17;;
4504;SDS011;2265;48.794;9.520;2024-02-23T03:45:23;1.40;;;1.10;;
4504;SDS011;2265;48.794;9.520;2024-02-23T03:47:50;1.40;;;1.20;;
4504;SDS011;2265;48.794;9.520;2024-02-23T03:50:17;2.73;;;1.10;;
4504;SDS011;2265;48.794;9.520;2024-02-23T03:52:45;1.10;;;1.00;;
4504;SDS011;2265;48.794;9.520;2024-02-23T03:55:13;6.13;;;1.10;;
4504;SDS011;2265;48.794;9.520;2024-02-23T03:57:40;2.43;;;1.20;;
4504;SDS011;2265;48.794;9.520;2024-02-23T04:00:07;4.70;;;1.40;;
4504;SDS011;2265;48.794;9.520;2024-02-23T04:02:35;1.60;;;1.20;;
4504;SDS011;2265;48.794;9.520;2024-02-23T04:05:02;1.43;;;1.10;;
4504;SDS011;2265;48.794;9.520;2024-02-23T04:07:30;1.30;;;1.00;;
4504;SDS011;2265;48.794;9.520;2024-02-23T04:10:01;1.40;;;1.20;;
4504;SDS011;2265;48.794;9.520;2024-02-23T04:12:29;1.53;;;1.30;;
4504;SDS011;2265;48.794;9.520;2024-02-23T04:14:56;4.43;;;1.10;;
4504;SDS011;2265;48.794;9.520;2024-02-23T04:17:25;1.50;;;1.10;;
4504;SDS011;2265;48.794;9.520;2024-02-23T04:19:52;1.20;;;1.10;;
4504;SDS011;2265;48.794;9.520;2024-02-23T04:22:19;1.30;;;1.10;;
4504;SDS011;2265;48.794;9.520;2024-02-23T04:24:46;1.40;;;1.10;;
4504;SDS011;2265;48.794;9.520;2024-02-23T04:27:15;1.57;;;1.07;;
4504;SDS011;2265;48.794;9.520;2024-02-23T04:29:42;1.10;;;1.00;;
4504;SDS011;2265;48.794;9.520;2024-02-23T04:32:10;2.63;;;1.20;;
4504;SDS011;2265;48.794;9.520;2024-02-23T04:34:38;3.93;;;1.10;;
4504;SDS011;2265;48.794;9.520;2024-02-23T04:37:06;1.20;;;1.10;;
4504;SDS011;2265;48.794;9.520;2024-02-23T04:39:36;1.20;;;1.00;;
4504;SDS011;2265;48.794;9.520;2024-02-23T04:42:03;1.80;;;1.10;;
4504;SDS011;2265;48.794;9.520;2024-02-23T04:44:32;4.73;;;1.10;;
4504;SDS011;2265;48.794;9.520;2024-02-23T04:46:59;1.57;;;1.10;;
4504;SDS011;2265;48.794;9.520;2024-02-23T04:49:26;1.50;;;1.00;;
4504;SDS011;2265;48.794;9.520;2024-02-23T04:51:53;2.33;;;1.20;;
4504;SDS011;2265;48.794;9.520;2024-02-23T04:54:21;1.20;;;1.00;;
4504;SDS011;2265;48.794;9.520;2024-02-23T04:56:51;1.30;;;1.00;;
4504;SDS011;2265;48.794;9.520;2024-02-23T04:59:18;1.20;;;1.10;;
4504;SDS011;2265;48.794;9.520;2024-02-23T05:01:46;1.40;;;1.10;;
4504;SDS011;2265;48.794;9.520;2024-02-23T05:04:13;5.00;;;1.23;;
4504;SDS011;2265;48.794;9.520;2024-02-23T05:06:40;2.03;;;1.23;;
4504;SDS011;2265;48.794;9.520;2024-02-23T05:09:08;2.23;;;1.20;;
4504;SDS011;2265;48.794;9.520;2024-02-23T05:11:36;2.23;;;1.20;;
4504;SDS011;2265;48.794;9.520;2024-02-23T05:14:03;1.90;;;1.10;;
4504;SDS011;2265;48.794;9.520;2024-02-23T05:16:31;1.97;;;1.20;;
4504;SDS011;2265;48.794;9.520;2024-02-23T05:18:59;2.20;;;1.20;;
4504;SDS011;2265;48.794;9.520;2024-02-23T05:21:26;5.10;;;1.30;;
4504;SDS011;2265;48.794;9.520;2024-02-23T05:23:53;1.70;;;1.30;;
4504;SDS011;2265;48.794;9.520;2024-02-23T05:26:20;1.57;;;1.10;;
4504;SDS011;2265;48.794;9.520;2024-02-23T05:28:47;1.57;;;1.10;;
4504;SDS011;2265;48.794;9.520;2024-02-23T05:31:14;3.33;;;1.10;;
4504;SDS011;2265;48.794;9.520;2024-02-23T05:33:42;5.00;;;1.83;;
4504;SDS011;2265;48.794;9.520;2024-02-23T05:36:10;1.93;;;1.30;;
4504;SDS011;2265;48.794;9.520;2024-02-23T05:38:37;1.43;;;1.10;;
4504;SDS011;2265;48.794;9.520;2024-02-23T05:41:04;3.10;;;1.30;;
4504;SDS011;2265;48.794;9.520;2024-02-23T05:43:32;6.03;;;1.20;;
4504;SDS011;2265;48.794;9.520;2024-02-23T05:46:00;1.50;;;1.17;;
4504;SDS011;2265;48.794;9.520;2024-02-23T05:48:27;1.50;;;1.30;;
4504;SDS011;2265;48.794;9.520;2024-02-23T05:50:54;1.40;;;1.20;;
4504;SDS011;2265;48.794;9.520;2024-02-23T05:53:22;1.63;;;1.30;;
4504;SDS011;2265;48.794;9.520;2024-02-23T05:55:50;1.40;;;1.20;;
4504;SDS011;2265;48.794;9.520;2024-02-23T05:58:18;3.40;;;1.60;;
4504;SDS011;2265;48.794;9.520;2024-02-23T06:00:46;2.00;;;1.40;;
4504;SDS011;2265;48.794;9.520;2024-02-23T06:03:13;1.60;;;1.30;;
4504;SDS011;2265;48.794;9.520;2024-02-23T06:05:40;1.80;;;1.40;;
4504;SDS011;2265;48.794;9.520;2024-02-23T06:08:07;1.50;;;1.20;;
4504;SDS011;2265;48.794;9.520;2024-02-23T06:10:36;3.53;;;1.37;;
4504;SDS011;2265;48.794;9.520;2024-02-23T06:13:04;2.33;;;1.40;;
4504;SDS011;2265;48.794;9.520;2024-02-23T06:15:33;1.27;;;1.20;;
4504;SDS011;2265;48.794;9.520;2024-02-23T06:18:00;3.83;;;1.30;;
4504;SDS011;2265;48.794;9.520;2024-02-23T06:20:28;1.93;;;1.30;;
4504;SDS011;2265;48.794;9.520;2024-02-23T06:22:54;3.30;;;1.30;;
4504;SDS011;2265;48.794;9.520;2024-02-23T06:25:22;1.40;;;1.20;;
4504;SDS011;2265;48.794;9.520;2024-02-23T06:27:52;1.20;;;1.10;;
4504;SDS011;2265;48.794;9.520;2024-02-23T06:30:19;3.13;;;1.17;;
4504;SDS011;2265;48.794;9.520;2024-02-23T06:32:46;1.73;;;1.20;;
4504;SDS011;2265;48.794;9.520;2024-02-23T06:35:13;1.60;;;1.10;;
4504;SDS011;2265;48.794;9.520;2024-02-23T06:37:40;3.20;;;1.20;;
4504;SDS011;2265;48.794;9.520;2024-02-23T06:40:08;2.23;;;1.20;;
4504;SDS011;2265;48.794;9.520;2024-02-23T06:42:35;1.73;;;1.30;;
4504;SDS011;2265;48.794;9.520;2024-02-23T06:45:05;1.70;;;1.30;;
4504;SDS011;2265;48.794;9.520;2024-02-23T06:47:33;2.60;;;1.80;;
4504;SDS011;2265;48.794;9.520;2024-02-23T06:50:01;1.90;;;1.37;;
4504;SDS011;2265;48.794;9.520;2024-02-23T06:52:28;5.17;;;1.60;;
4504;SDS011;2265;48.794;9.520;2024-02-23T06:54:56;5.00;;;1.90;;
4504;SDS011;2265;48.794;9.520;2024-02-23T06:57:23;1.97;;;1.40;;
4504;SDS011;2265;48.794;9.520;2024-02-23T06:59:51;2.70;;;1.40;;
4504;SDS011;2265;48.794;9.520;2024-02-23T07:02:20;1.67;;;1.40;;
4504;SDS011;2265;48.794;9.520;2024-02-23T07:04:47;1.80;;;1.40;;
4504;SDS011;2265;48.794;9.520;2024-02-23T07:07:14;1.93;;;1.40;;
4504;SDS011;2265;48.794;9.520;2024-02-23T07:09:41;2.23;;;1.23;;
4504;SDS011;2265;48.794;9.520;2024-02-23T07:12:09;1.97;;;1.33;;
4504;SDS011;2265;48.794;9.520;2024-02-23T07:14:38;1.40;;;1.20;;
4504;SDS011;2265;48.794;9.520;2024-02-23T07:17:05;1.97;;;1.30;;
4504;SDS011;2265;48.794;9.520;2024-02-23T07:19:34;1.30;;;1.30;;
4504;SDS011;2265;48.794;9.520;2024-02-23T07:22:01;1.57;;;1.20;;
4504;SDS011;2265;48.794;9.520;2024-02-23T07:24:29;2.33;;;1.43;;
4504;SDS011;2265;48.794;9.520;2024-02-23T07:26:57;1.60;;;1.40;;
4504;SDS011;2265;48.794;9.520;2024-02-23T07:29:24;3.33;;;1.40;;
4504;SDS011;2265;48.794;9.520;2024-02-23T07:31:52;3.70;;;1.50;;
4504;SDS011;2265;48.794;9.520;2024-02-23T07:34:20;3.73;;;1.40;;
4504;SDS011;2265;48.794;9.520;2024-02-23T07:36:51;2.67;;;1.50;;
4504;SDS011;2265;48.794;9.520;2024-02-23T07:39:18;1.80;;;1.50;;
4504;SDS011;2265;48.794;9.520;2024-02-23T07:41:45;3.00;;;1.60;;
4504;SDS011;2265;48.794;9.520;2024-02-23T07:44:12;20.93;;;7.70;;
4504;SDS011;2265;48.794;9.520;2024-02-23T07:46:40;12.50;;;4.90;;
4504;SDS011;2265;48.794;9.520;2024-02-23T07:49:09;6.97;;;3.63;;
4504;SDS011;2265;48.794;9.520;2024-02-23T07:51:36;11.50;;;3.57;;
4504;SDS011;2265;48.794;9.520;2024-02-23T07:54:04;2.37;;;1.80;;
4504;SDS011;2265;48.794;9.520;2024-02-23T07:56:31;2.53;;;1.60;;
4504;SDS011;2265;48.794;9.520;2024-02-23T07:58:59;2.20;;;1.30;;
4504;SDS011;2265;48.794;9.520;2024-02-23T08:01:28;1.50;;;1.50;;
4504;SDS011;2265;48.794;9.520;2024-02-23T08:03:55;1.90;;;1.40;;
4504;SDS011;2265;48.794;9.520;2024-02-23T08:06:23;2.20;;;1.20;;
4504;SDS011;2265;48.794;9.520;2024-02-23T08:08:51;2.37;;;1.60;;
4504;SDS011;2265;48.794;9.520;2024-02-23T08:11:20;2.43;;;1.70;;
4504;SDS011;2265;48.794;9.520;2024-02-23T08:13:47;2.53;;;1.63;;
4504;SDS011;2265;48.794;9.520;2024-02-23T08:16:15;4.73;;;1.60;;
4504;SDS011;2265;48.794;9.520;2024-02-23T08:18:42;1.93;;;1.50;;
4504;SDS011;2265;48.794;9.520;2024-02-23T08:21:10;2.30;;;1.60;;
4504;SDS011;2265;48.794;9.520;2024-02-23T08:23:38;2.10;;;1.40;;
4504;SDS011;2265;48.794;9.520;2024-02-23T08:26:05;1.90;;;1.50;;
4504;SDS011;2265;48.794;9.520;2024-02-23T08:28:37;2.90;;;1.47;;
4504;SDS011;2265;48.794;9.520;2024-02-23T08:31:04;1.60;;;1.30;;
4504;SDS011;2265;48.794;9.520;2024-02-23T08:33:32;2.13;;;1.50;;
4504;SDS011;2265;48.794;9.520;2024-02-23T08:35:59;1.53;;;1.40;;
4504;SDS011;2265;48.794;9.520;2024-02-23T08:38:26;2.00;;;1.30;;
4504;SDS011;2265;48.794;9.520;2024-02-23T08:40:53;2.47;;;1.70;;
4504;SDS011;2265;48.794;9.520;2024-02-23T08:43:20;14.80;;;2.07;;
4504;SDS011;2265;48.794;9.520;2024-02-23T08:45:49;2.53;;;1.67;;
4504;SDS011;2265;48.794;9.520;2024-02-23T08:48:16;4.10;;;1.63;;
4504;SDS011;2265;48.794;9.520;2024-02-23T08:50:43;3.87;;;1.70;;
4504;SDS011;2265;48.794;9.520;2024-02-23T08:53:19;2.17;;;1.60;;
4504;SDS011;2265;48.794;9.520;2024-02-23T08:56:02;4.17;;;1.60;;
4504;SDS011;2265;48.794;9.520;2024-02-23T08:58:30;2.20;;;1.50;;
4504;SDS011;2265;48.794;9.520;2024-02-23T09:00:58;5.37;;;1.87;;
4504;SDS011;2265;48.794;9.520;2024-02-23T09:03:26;1.90;;;1.73;;
4504;SDS011;2265;48.794;9.520;2024-02-23T09:05:54;1.70;;;1.30;;
4504;SDS011;2265;48.794;9.520;2024-02-23T09:08:21;1.90;;;1.60;;
4504;SDS011;2265;48.794;9.520;2024-02-23T09:10:48;2.97;;;1.63;;
4504;SDS011;2265;48.794;9.520;2024-02-23T09:13:15;3.03;;;1.50;;
4504;SDS011;2265;48.794;9.520;2024-02-23T09:15:43;2.57;;;1.60;;
4504;SDS011;2265;48.794;9.520;2024-02-23T09:18:11;2.77;;;1.50;;
4504;SDS011;2265;48.794;9.520;2024-02-23T09:20:38;1.37;;;1.30;;
4504;SDS011;2265;48.794;9.520;2024-02-23T09:23:05;1.83;;;1.37;;
4504;SDS011;2265;48.794;9.520;2024-02-23T09:25:32;2.50;;;1.47;;
4504;SDS011;2265;48.794;9.520;2024-02-23T09:27:59;1.97;;;1.40;;
4504;SDS011;2265;48.794;9.520;2024-02-23T09:30:27;3.33;;;1.30;;
4504;SDS011;2265;48.794;9.520;2024-02-23T09:32:54;2.13;;;1.20;;
4504;SDS011;2265;48.794;9.520;2024-02-23T09:35:22;1.40;;;1.30;;
4504;SDS011;2265;48.794;9.520;2024-02-23T09:37:49;1.67;;;1.50;;
4504;SDS011;2265;48.794;9.520;2024-02-23T09:40:18;2.37;;;1.60;;
4504;SDS011;2265;48.794;9.520;2024-02-23T09:42:47;5.30;;;1.77;;
4504;SDS011;2265;48.794;9.520;2024-02-23T09:45:21;2.00;;;1.47;;
4504;SDS011;2265;48.794;9.520;2024-02-23T09:47:48;3.93;;;1.40;;
4504;SDS011;2265;48.794;9.520;2024-02-23T09:50:16;1.87;;;1.40;;
4504;SDS011;2265;48.794;9.520;2024-02-23T09:52:48;1.50;;;1.33;;
4504;SDS011;2265;48.794;9.520;2024-02-23T09:55:16;3.50;;;1.60;;
4504;SDS011;2265;48.794;9.520;2024-02-23T09:57:43;1.70;;;1.43;;
4504;SDS011;2265;48.794;9.520;2024-02-23T10:00:12;2.00;;;1.47;;
4504;SDS011;2265;48.794;9.520;2024-02-23T10:02:42;1.47;;;1.37;;
4504;SDS011;2265;48.794;9.520;2024-02-23T10:05:10;3.87;;;1.37;;
4504;SDS011;2265;48.794;9.520;2024-02-23T10:07:37;4.03;;;1.87;;
4504;SDS011;2265;48.794;9.520;2024-02-23T10:10:08;1.90;;;1.40;;
4504;SDS011;2265;48.794;9.520;2024-02-23T10:12:36;2.07;;;1.47;;
4504;SDS011;2265;48.794;9.520;2024-02-23T10:15:04;3.27;;;1.60;;
4504;SDS011;2265;48.794;9.520;2024-02-23T10:17:32;4.17;;;1.63;;
4504;SDS011;2265;48.794;9.520;2024-02-23T10:20:00;2.03;;;1.40;;
4504;SDS011;2265;48.794;9.520;2024-02-23T10:22:30;3.00;;;1.70;;
4504;SDS011;2265;48.794;9.520;2024-02-23T10:24:57;1.67;;;1.40;;
4504;SDS011;2265;48.794;9.520;2024-02-23T10:27:26;4.80;;;2.33;;
4504;SDS011;2265;48.794;9.520;2024-02-23T10:29:53;2.80;;;1.43;;
4504;SDS011;2265;48.794;9.520;2024-02-23T10:32:20;1.70;;;1.40;;
4504;SDS011;2265;48.794;9.520;2024-02-23T10:34:48;3.73;;;1.50;;
4504;SDS011;2265;48.794;9.520;2024-02-23T10:37:17;2.50;;;1.30;;
4504;SDS011;2265;48.794;9.520;2024-02-23T10:39:44;4.57;;;1.63;;
4504;SDS011;2265;48.794;9.520;2024-02-23T10:44:43;2.63;;;1.40;;
4504;SDS011;2265;48.794;9.520;2024-02-23T10:47:11;1.50;;;1.30;;
4504;SDS011;2265;48.794;9.520;2024-02-23T10:49:38;2.50;;;1.40;;
4504;SDS011;2265;48.794;9.520;2024-02-23T10:52:07;1.93;;;1.50;;
4504;SDS011;2265;48.794;9.520;2024-02-23T10:54:37;1.40;;;1.30;;
4504;SDS011;2265;48.794;9.520;2024-02-23T10:57:05;3.63;;;1.23;;
4504;SDS011;2265;48.794;9.520;2024-02-23T10:59:33;4.07;;;1.70;;
4504;SDS011;2265;48.794;9.520;2024-02-23T11:02:03;3.10;;;1.63;;
4504;SDS011;2265;48.794;9.520;2024-02-23T11:04:31;1.73;;;1.50;;
4504;SDS011;2265;48.794;9.520;2024-02-23T11:07:00;1.77;;;1.57;;
4504;SDS011;2265;48.794;9.520;2024-02-23T11:09:32;2.60;;;1.57;;
4504;SDS011;2265;48.794;9.520;2024-02-23T11:12:03;1.70;;;1.33;;
4504;SDS011;2265;48.794;9.520;2024-02-23T11:14:31;4.00;;;1.60;;
4504;SDS011;2265;48.794;9.520;2024-02-23T11:16:58;3.50;;;1.50;;
4504;SDS011;2265;48.794;9.520;2024-02-23T11:19:36;2.57;;;1.40;;
4504;SDS011;2265;48.794;9.520;2024-02-23T11:22:09;2.83;;;1.50;;
4504;SDS011;2265;48.794;9.520;2024-02-23T11:24:42;4.17;;;1.37;;
4504;SDS011;2265;48.794;9.520;2024-02-23T11:27:12;2.07;;;1.37;;
4504;SDS011;2265;48.794;9.520;2024-02-23T11:29:43;2.13;;;1.20;;
4504;SDS011;2265;48.794;9.520;2024-02-23T11:32:12;2.53;;;1.23;;
4504;SDS011;2265;48.794;9.520;2024-02-23T11:34:41;1.87;;;1.20;;
4504;SDS011;2265;48.794;9.520;2024-02-23T11:37:19;1.80;;;1.40;;
4504;SDS011;2265;48.794;9.520;2024-02-23T11:39:48;4.30;;;1.50;;
4504;SDS011;2265;48.794;9.520;2024-02-23T11:42:15;2.43;;;1.50;;
4504;SDS011;2265;48.794;9.520;2024-02-23T11:44:44;1.30;;;1.20;;
4504;SDS011;2265;48.794;9.520;2024-02-23T11:47:11;2.60;;;1.20;;
4504;SDS011;2265;48.794;9.520;2024-02-23T11:49:38;3.20;;;1.40;;
4504;SDS011;2265;48.794;9.520;2024-02-23T11:52:07;4.77;;;1.40;;
4504;SDS011;2265;48.794;9.520;2024-02-23T11:54:34;2.70;;;1.40;;
4504;SDS011;2265;48.794;9.520;2024-02-23T11:57:06;2.20;;;1.50;;
4504;SDS011;2265;48.794;9.520;2024-02-23T11:59:33;2.03;;;1.50;;
4504;SDS011;2265;48.794;9.520;2024-02-23T12:02:00;1.93;;;1.23;;
4504;SDS011;2265;48.794;9.520;2024-02-23T12:04:28;12.00;;;1.70;;
4504;SDS011;2265;48.794;9.520;2024-02-23T12:06:57;1.73;;;1.30;;
4504;SDS011;2265;48.794;9.520;2024-02-23T12:09:26;3.50;;;1.40;;
4504;SDS011;2265;48.794;9.520;2024-02-23T12:11:53;2.77;;;1.50;;
4504;SDS011;2265;48.794;9.520;2024-02-23T12:14:20;1.33;;;1.13;;
4504;SDS011;2265;48.794;9.520;2024-02-23T12:16:47;2.80;;;1.47;;
4504;SDS011;2265;48.794;9.520;2024-02-23T12:19:14;1.47;;;1.27;;
4504;SDS011;2265;48.794;9.520;2024-02-23T12:21:44;1.80;;;1.40;;
4504;SDS011;2265;48.794;9.520;2024-02-23T12:24:12;2.07;;;1.40;;
4504;SDS011;2265;48.794;9.520;2024-02-23T12:26:40;1.67;;;1.33;;
4504;SDS011;2265;48.794;9.520;2024-02-23T12:29:08;3.53;;;1.70;;
4504;SDS011;2265;48.794;9.520;2024-02-23T12:31:36;4.33;;;1.50;;
4504;SDS011;2265;48.794;9.520;2024-02-23T12:34:05;5.67;;;1.80;;
4504;SDS011;2265;48.794;9.520;2024-02-23T12:36:34;1.90;;;1.47;;
4504;SDS011;2265;48.794;9.520;2024-02-23T12:39:03;1.63;;;1.33;;
4504;SDS011;2265;48.794;9.520;2024-02-23T12:41:30;1.87;;;1.37;;
4504;SDS011;2265;48.794;9.520;2024-02-23T12:43:59;2.17;;;1.33;;
4504;SDS011;2265;48.794;9.520;2024-02-23T12:46:26;2.60;;;1.43;;
4504;SDS011;2265;48.794;9.520;2024-02-23T12:48:53;4.07;;;1.40;;
4504;SDS011;2265;48.794;9.520;2024-02-23T12:51:24;2.70;;;1.50;;
4504;SDS011;2265;48.794;9.520;2024-02-23T12:53:52;2.47;;;1.30;;
4504;SDS011;2265;48.794;9.520;2024-02-23T12:56:19;5.40;;;1.80;;
4504;SDS011;2265;48.794;9.520;2024-02-23T12:58:48;1.83;;;1.47;;
4504;SDS011;2265;48.794;9.520;2024-02-23T13:01:16;2.17;;;1.50;;
4504;SDS011;2265;48.794;9.520;2024-02-23T13:03:44;5.70;;;1.47;;
4504;SDS011;2265;48.794;9.520;2024-02-23T13:06:11;1.63;;;1.30;;
4504;SDS011;2265;48.794;9.520;2024-02-23T13:08:48;9.13;;;1.70;;
4504;SDS011;2265;48.794;9.520;2024-02-23T13:11:15;8.13;;;1.90;;
4504;SDS011;2265;48.794;9.520;2024-02-23T13:13:42;3.00;;;1.30;;
4504;SDS011;2265;48.794;9.520;2024-02-23T13:16:10;3.50;;;1.33;;
4504;SDS011;2265;48.794;9.520;2024-02-23T13:18:42;1.53;;;1.40;;
4504;SDS011;2265;48.794;9.520;2024-02-23T13:21:11;2.97;;;1.43;;
4504;SDS011;2265;48.794;9.520;2024-02-23T13:23:38;2.60;;;1.33;;
4504;SDS011;2265;48.794;9.520;2024-02-23T13:26:07;1.80;;;1.43;;
4504;SDS011;2265;48.794;9.520;2024-02-23T13:28:35;3.40;;;1.50;;
4504;SDS011;2265;48.794;9.520;2024-02-23T13:31:03;3.63;;;1.50;;
4504;SDS011;2265;48.794;9.520;2024-02-23T13:33:30;5.70;;;1.60;;
4504;SDS011;2265;48.794;9.520;2024-02-23T13:35:58;3.87;;;1.30;;
4504;SDS011;2265;48.794;9.520;2024-02-23T13:38:26;1.70;;;1.40;;
4504;SDS011;2265;48.794;9.520;2024-02-23T13:40:53;3.10;;;1.30;;
4504;SDS011;2265;48.794;9.520;2024-02-23T13:43:20;4.07;;;1.40;;
4504;SDS011;2265;48.794;9.520;2024-02-23T13:45:48;3.73;;;1.43;;
4504;SDS011;2265;48.794;9.520;2024-02-23T13:48:17;2.33;;;1.53;;
4504;SDS011;2265;48.794;9.520;2024-02-23T13:50:44;3.50;;;2.20;;
4504;SDS011;2265;48.794;9.520;2024-02-23T13:53:14;2.00;;;1.60;;
4504;SDS011;2265;48.794;9.520;2024-02-23T13:55:40;4.20;;;1.60;;
4504;SDS011;2265;48.794;9.520;2024-02-23T13:58:09;7.20;;;2.30;;
4504;SDS011;2265;48.794;9.520;2024-02-23T14:00:37;7.93;;;2.33;;
4504;SDS011;2265;48.794;9.520;2024-02-23T14:03:04;4.30;;;1.80;;
4504;SDS011;2265;48.794;9.520;2024-02-23T14:05:31;3.20;;;1.50;;
4504;SDS011;2265;48.794;9.520;2024-02-23T14:07:59;1.83;;;1.40;;
4504;SDS011;2265;48.794;9.520;2024-02-23T14:10:27;2.90;;;1.50;;
4504;SDS011;2265;48.794;9.520;2024-02-23T14:12:55;3.43;;;1.80;;
4504;SDS011;2265;48.794;9.520;2024-02-23T14:15:22;3.90;;;1.97;;
4504;SDS011;2265;48.794;9.520;2024-02-23T14:17:50;3.97;;;1.77;;
4504;SDS011;2265;48.794;9.520;2024-02-23T14:20:18;3.33;;;1.60;;
4504;SDS011;2265;48.794;9.520;2024-02-23T14:22:45;2.83;;;1.63;;
4504;SDS011;2265;48.794;9.520;2024-02-23T14:25:15;4.80;;;1.50;;
4504;SDS011;2265;48.794;9.520;2024-02-23T14:27:43;6.87;;;1.40;;
4504;SDS011;2265;48.794;9.520;2024-02-23T14:30:11;6.30;;;1.90;;
4504;SDS011;2265;48.794;9.520;2024-02-23T14:32:38;2.80;;;1.47;;
4504;SDS011;2265;48.794;9.520;2024-02-23T14:35:07;1.83;;;1.50;;
4504;SDS011;2265;48.794;9.520;2024-02-23T14:37:35;3.07;;;1.70;;
4504;SDS011;2265;48.794;9.520;2024-02-23T14:40:02;2.97;;;1.40;;
4504;SDS011;2265;48.794;9.520;2024-02-23T14:42:30;2.10;;;1.50;;
4504;SDS011;2265;48.794;9.520;2024-02-23T14:45:00;5.70;;;2.10;;
4504;SDS011;2265;48.794;9.520;2024-02-23T14:47:29;3.73;;;1.67;;
4504;SDS011;2265;48.794;9.520;2024-02-23T14:49:56;1.90;;;1.30;;
4504;SDS011;2265;48.794;9.520;2024-02-23T14:52:23;2.67;;;1.60;;
4504;SDS011;2265;48.794;9.520;2024-02-23T14:54:50;4.83;;;1.50;;
4504;SDS011;2265;48.794;9.520;2024-02-23T14:57:19;4.00;;;1.60;;
4504;SDS011;2265;48.794;9.520;2024-02-23T14:59:46;4.07;;;1.57;;
4504;SDS011;2265;48.794;9.520;2024-02-23T15:02:17;4.40;;;1.50;;
4504;SDS011;2265;48.794;9.520;2024-02-23T15:04:46;1.60;;;1.40;;
4504;SDS011;2265;48.794;9.520;2024-02-23T15:07:13;3.83;;;1.70;;
4504;SDS011;2265;48.794;9.520;2024-02-23T15:09:41;2.13;;;1.80;;
4504;SDS011;2265;48.794;9.520;2024-02-23T15:12:08;3.97;;;1.90;;
4504;SDS011;2265;48.794;9.520;2024-02-23T15:14:36;2.47;;;1.50;;
4504;SDS011;2265;48.794;9.520;2024-02-23T15:17:03;2.63;;;1.60;;
4504;SDS011;2265;48.794;9.520;2024-02-23T15:19:31;2.80;;;1.40;;
4504;SDS011;2265;48.794;9.520;2024-02-23T15:21:58;1.50;;;1.33;;